Time;durP1;ratioP1;P1;durP2;ratioP2;P2;SDS_P1;SDS_P2;PMS_P1;PMS_P2;Temp;Humidity;BMP_temperature;BMP_pressure;BME280_temperature;BME280_humidity;BME280_pressure;Samples;Min_cycle;Max_cycle;Signal;HPM_P1;HPM_P2
2021/01/02 00:00:33;;;;;;;47.65;26.95;;;;;;;6.96;78.90;101960.59;1757954;81;21331;-74
2021/01/02 00:03:51;;;;;;;47.38;26.27;;;;;;;7.03;79.18;101968.38;1733199;81;22120;-74
2021/01/02 00:06:54;;;;;;;54.90;30.52;;;;;;;7.16;79.18;101980.33;1739156;81;21239;-73
2021/01/02 00:09:27;;;;;;;46.65;26.80;;;;;;;7.27;78.86;101985.23;1775653;80;21855;-74
2021/01/02 00:12:30;;;;;;;54.00;28.10;;;;;;;7.24;78.46;101989.25;1782172;80;21359;-73
2021/01/02 00:15:08;;;;;;;46.00;27.60;;;;;;;7.20;78.38;101998.72;1783060;80;21344;-73
2021/01/02 00:18:08;;;;;;;48.15;27.52;;;;;;;7.18;78.35;101998.05;1774483;80;21210;-73
2021/01/02 00:21:05;;;;;;;50.80;28.77;;;;;;;7.22;78.46;102009.02;1761071;80;21193;-74
2021/01/02 00:23:51;;;;;;;54.00;30.50;;;;;;;7.29;78.33;102012.97;1765230;80;21847;-74
2021/01/02 00:26:47;;;;;;;43.63;24.70;;;;;;;7.33;78.05;102020.86;1745423;80;21200;-73
2021/01/02 00:29:25;;;;;;;50.38;27.35;;;;;;;7.28;77.69;102022.00;1768881;80;21220;-73
2021/01/02 00:32:09;;;;;;;49.83;26.57;;;;;;;7.04;77.50;102019.77;1786269;80;21388;-73
2021/01/02 00:35:04;;;;;;;60.75;28.45;;;;;;;6.95;77.95;102035.65;1784248;80;21347;-73
2021/01/02 00:40:21;;;;;;;47.93;27.07;;;;;;;7.04;78.30;102034.44;1776477;80;21190;-73
2021/01/02 00:42:55;;;;;;;48.87;25.55;;;;;;;7.10;78.09;102035.00;1788134;80;21238;-73
2021/01/02 00:45:29;;;;;;;46.73;25.85;;;;;;;7.13;77.87;102038.72;1788194;79;21343;-73
2021/01/02 00:48:04;;;;;;;46.60;25.32;;;;;;;7.16;77.66;102048.50;1771097;80;21338;-73
2021/01/02 00:50:37;;;;;;;48.25;24.47;;;;;;;7.15;77.50;102060.61;1781799;80;21313;-72
2021/01/02 00:53:34;;;;;;;44.53;24.37;;;;;;;7.14;77.47;102072.72;1749918;78;22184;-73
2021/01/02 00:56:14;;;;;;;50.67;27.65;;;;;;;7.04;77.46;102074.98;1809604;78;21320;-73
2021/01/02 00:59:19;;;;;;;54.50;28.75;;;;;;;6.92;77.68;102071.09;1794007;78;21395;-73
2021/01/02 01:02:08;;;;;;;;;;;;;;;6.90;77.66;102073.21;1751798;78;21320;-73
2021/01/02 01:05:04;;;;;;;44.80;24.35;;;;;;;6.79;77.70;102074.60;1792972;78;20249;-73
2021/01/02 01:07:38;;;;;;;40.60;22.98;;;;;;;6.77;78.06;102080.03;1786927;80;21370;-72
2021/01/02 01:10:11;;;;;;;39.73;23.12;;;;;;;6.76;78.07;102092.96;1772686;80;21260;-72
2021/01/02 01:12:44;;;;;;;45.45;27.45;;;;;;;6.66;77.92;102088.31;1784216;79;21196;-75
2021/01/02 01:15:17;;;;;;;45.52;24.50;;;;;;;6.60;78.19;102091.88;1765834;79;21338;-74
2021/01/02 01:18:15;;;;;;;41.30;23.50;;;;;;;6.58;78.21;102091.74;1815455;78;21170;-74
2021/01/02 01:20:54;;;;;;;39.92;23.70;;;;;;;6.56;78.21;102098.00;1789174;80;21237;-74
2021/01/02 01:23:52;;;;;;;41.18;24.12;;;;;;;6.57;78.28;102099.70;1784980;80;21813;-73
2021/01/02 01:26:37;;;;;;;45.78;25.77;;;;;;;6.59;78.49;102098.45;1763444;79;21772;-73
2021/01/02 01:29:11;;;;;;;43.17;25.17;;;;;;;6.61;78.41;102094.98;1746272;80;21685;-73
2021/01/02 01:31:47;;;;;;;41.05;22.98;;;;;;;6.59;78.30;102092.93;1772506;79;21200;-75
2021/01/02 01:34:23;;;;;;;43.73;22.87;;;;;;;6.60;78.25;102099.31;1784991;79;21325;-73
2021/01/02 01:36:56;;;;;;;38.80;20.95;;;;;;;6.51;77.96;102112.91;1779948;80;21730;-73
2021/01/02 01:39:30;;;;;;;44.93;26.33;;;;;;;6.33;77.95;102111.16;1774628;79;21196;-73
2021/01/02 01:42:05;;;;;;;53.80;30.23;;;;;;;6.13;78.17;102121.14;1784620;79;21203;-74
2021/01/02 01:45:00;;;;;;;52.25;30.62;;;;;;;6.02;78.77;102118.39;1777263;80;21399;-73
2021/01/02 01:47:41;;;;;;;52.85;27.62;;;;;;;6.06;78.96;102125.74;1767033;80;21216;-73
2021/01/02 01:50:26;;;;;;;44.38;25.50;;;;;;;6.15;79.10;102128.17;1777998;80;21335;-74
2021/01/02 01:53:18;;;;;;;46.90;26.20;;;;;;;6.21;78.95;102121.00;1767411;80;21334;-73
2021/01/02 01:56:00;;;;;;;39.98;23.62;;;;;;;6.29;79.13;102128.63;1779366;80;21324;-73
2021/01/02 01:58:56;;;;;;;42.05;24.30;;;;;;;6.33;78.87;102133.22;1777684;80;21347;-74
2021/01/02 02:01:33;;;;;;;44.65;24.20;;;;;;;6.27;78.75;102136.76;1762419;80;21178;-73
2021/01/02 02:04:14;;;;;;;42.55;23.32;;;;;;;6.24;78.82;102135.80;1770683;79;21194;-72
2021/01/02 02:06:47;;;;;;;39.13;20.15;;;;;;;6.24;78.71;102134.41;1766082;80;21193;-72
2021/01/02 02:09:23;;;;;;;38.25;21.85;;;;;;;6.28;78.71;102138.50;1784056;80;21336;-73
2021/01/02 02:12:05;;;;;;;38.50;21.82;;;;;;;6.33;78.70;102138.22;1764451;80;21366;-73
2021/01/02 02:14:41;;;;;;;40.40;21.45;;;;;;;6.35;78.45;102140.24;1774105;79;21217;-73
2021/01/02 02:17:16;;;;;;;42.53;24.63;;;;;;;6.36;78.37;102141.11;1783537;79;21336;-74
2021/01/02 02:20:07;;;;;;;39.60;23.35;;;;;;;6.29;78.29;102151.23;1769916;80;21327;-73
2021/01/02 02:22:41;;;;;;;35.33;20.32;;;;;;;6.25;78.30;102153.53;1787844;79;21396;-73
2021/01/02 02:25:17;;;;;;;38.05;20.97;;;;;;;6.23;78.25;102155.61;1768257;80;21864;-73
2021/01/02 02:27:55;;;;;;;41.33;23.47;;;;;;;6.26;78.39;102158.50;1794910;79;21185;-73
2021/01/02 02:30:34;;;;;;;42.95;23.80;;;;;;;6.28;78.20;102166.07;1766714;80;21406;-73
2021/01/02 02:33:09;;;;;;;46.25;29.18;;;;;;;6.23;78.21;102162.50;1787241;80;21717;-76
2021/01/02 02:35:42;;;;;;;39.15;23.90;;;;;;;6.21;78.16;102166.50;1804262;79;21257;-73
2021/01/02 02:38:15;;;;;;;41.35;23.02;;;;;;;6.17;78.05;102172.94;1784144;80;21887;-72
2021/01/02 02:40:48;;;;;;;38.20;22.13;;;;;;;6.18;78.04;102171.05;1766780;80;21329;-73
2021/01/02 02:43:21;;;;;;;35.90;21.60;;;;;;;6.21;78.02;102174.26;1789072;79;21249;-73
2021/01/02 02:45:54;;;;;;;40.65;24.45;;;;;;;6.25;77.90;102187.13;1780417;80;21194;-73
2021/01/02 02:48:26;;;;;;;48.42;27.40;;;;;;;6.21;77.89;102185.29;1734053;80;21190;-73
2021/01/02 02:50:59;;;;;;;43.28;23.57;;;;;;;6.24;77.94;102198.67;1772795;80;21846;-73
2021/01/02 02:53:31;;;;;;;37.50;20.97;;;;;;;6.29;77.79;102203.63;1771753;80;21244;-73
2021/01/02 02:56:05;;;;;;;39.40;22.13;;;;;;;6.29;77.74;102202.25;1780102;80;21328;-74
2021/01/02 02:58:38;;;;;;;36.33;21.50;;;;;;;6.27;77.62;102209.84;1767443;80;21193;-74
2021/01/02 03:01:11;;;;;;;44.85;23.87;;;;;;;6.21;77.55;102203.72;1775755;80;21359;-74
2021/01/02 03:03:43;;;;;;;45.63;23.77;;;;;;;6.16;77.70;102204.86;1786811;80;21347;-73
2021/01/02 03:06:16;;;;;;;39.18;21.85;;;;;;;6.11;77.63;102204.58;1799491;79;21808;-73
2021/01/02 03:08:55;;;;;;;34.80;20.95;;;;;;;6.07;77.62;102205.50;1774166;80;21394;-73
2021/01/02 03:11:27;;;;;;;35.52;21.25;;;;;;;6.08;77.77;102207.71;1760517;80;21174;-74
2021/01/02 03:14:00;;;;;;;37.85;22.82;;;;;;;6.13;77.77;102206.61;1758141;81;21331;-73
2021/01/02 03:16:33;;;;;;;39.75;22.95;;;;;;;6.17;77.64;102206.56;1765116;81;21249;-73
2021/01/02 03:19:06;;;;;;;;;;;;;;;6.18;77.50;102209.64;1759412;81;21547;-73
2021/01/02 03:21:38;;;;;;;44.03;24.70;;;;;;;6.16;77.31;102218.10;1761809;80;20513;-74
2021/01/02 03:24:11;;;;;;;38.83;22.20;;;;;;;6.04;77.22;102215.52;1764101;80;21330;-74
2021/01/02 03:26:43;;;;;;;42.67;21.90;;;;;;;5.93;77.30;102216.55;1768559;80;21233;-74
2021/01/02 03:29:16;;;;;;;38.95;22.80;;;;;;;5.83;77.30;102224.25;1756125;81;21768;-74
2021/01/02 03:31:48;;;;;;;40.30;23.55;;;;;;;5.66;77.36;102217.20;1764322;80;21245;-73
2021/01/02 03:34:21;;;;;;;40.48;24.57;;;;;;;5.56;77.75;102216.11;1764101;80;21189;-74
2021/01/02 03:36:53;;;;;;;46.37;25.80;;;;;;;5.58;78.01;102224.19;1737792;80;21830;-74
2021/01/02 03:39:26;;;;;;;44.00;25.05;;;;;;;5.58;77.99;102236.08;1745662;80;21346;-74
2021/01/02 03:41:59;;;;;;;40.80;22.05;;;;;;;5.53;77.90;102233.03;1734716;81;21263;-74
2021/01/02 03:44:31;;;;;;;38.67;23.02;;;;;;;5.42;77.85;102239.01;1782363;79;21333;-75
2021/01/02 03:47:09;;;;;;;44.38;24.60;;;;;;;5.41;78.19;102247.45;1788814;79;21250;-73
2021/01/02 03:49:41;;;;;;;43.47;25.47;;;;;;;5.41;78.43;102248.83;1789180;79;21327;-73
2021/01/02 03:52:14;;;;;;;53.25;28.47;;;;;;;5.46;78.41;102262.89;1789534;79;21332;-73
2021/01/02 03:54:46;;;;;;;47.65;29.00;;;;;;;5.44;78.42;102258.10;1788225;79;21194;-73
2021/01/02 03:57:19;;;;;;;43.75;26.95;;;;;;;5.43;78.41;102257.78;1788537;79;21324;-76
2021/01/02 03:59:54;;;;;;;53.20;29.82;;;;;;;5.41;78.25;102262.09;1788699;79;21206;-76
2021/01/02 04:02:28;;;;;;;58.92;33.48;;;;;;;5.36;78.46;102267.30;1789832;79;21356;-72
2021/01/02 04:05:01;;;;;;;56.75;33.67;;;;;;;5.43;78.62;102259.98;1789427;79;21205;-72
2021/01/02 04:07:37;;;;;;;67.97;39.38;;;;;;;5.47;78.44;102267.34;1788833;79;21189;-73
2021/01/02 04:10:11;;;;;;;63.68;32.78;;;;;;;5.39;78.29;102270.20;1785822;79;21721;-72
2021/01/02 04:12:43;;;;;;;58.08;32.38;;;;;;;5.37;78.39;102276.42;1789241;79;21367;-72
2021/01/02 04:15:16;;;;;;;61.33;34.38;;;;;;;5.37;78.32;102276.42;1788423;79;21502;-73
2021/01/02 04:17:49;;;;;;;67.72;38.53;;;;;;;5.40;78.29;102281.03;1788289;79;21320;-71
2021/01/02 04:20:23;;;;;;;67.03;41.27;;;;;;;5.42;78.28;102275.31;1788748;79;21380;-71
2021/01/02 04:22:58;;;;;;;81.23;46.23;;;;;;;5.41;78.05;102277.23;1788944;80;21337;-73
2021/01/02 04:25:32;;;;;;;78.97;42.53;;;;;;;5.31;77.95;102283.52;1788967;79;21177;-72
2021/01/02 04:28:13;;;;;;;66.28;33.33;;;;;;;5.27;78.04;102282.71;1788556;79;21321;-70
2021/01/02 04:30:46;;;;;;;64.75;37.55;;;;;;;5.26;78.07;102290.64;1788394;79;21371;-71
2021/01/02 04:33:18;;;;;;;79.90;45.37;;;;;;;5.29;78.18;102298.51;1777327;80;21397;-71
2021/01/02 04:35:51;;;;;;;86.57;47.30;;;;;;;5.31;78.21;102304.71;1770708;80;21340;-73
2021/01/02 04:38:24;;;;;;;90.17;50.33;;;;;;;5.30;78.20;102308.48;1758165;80;21195;-72
2021/01/02 04:40:58;;;;;;;74.87;40.07;;;;;;;5.27;78.12;102311.11;1781563;80;21337;-72
2021/01/02 04:43:30;;;;;;;70.67;35.55;;;;;;;5.25;78.12;102319.22;1789128;80;21368;-71
2021/01/02 04:46:03;;;;;;;65.77;37.43;;;;;;;5.21;78.03;102317.36;1787973;80;21849;-72
2021/01/02 04:48:36;;;;;;;78.62;41.33;;;;;;;5.17;78.13;102323.40;1770673;80;21365;-72
2021/01/02 04:51:11;;;;;;;81.17;45.23;;;;;;;5.18;78.26;102324.59;1767467;80;21381;-71
2021/01/02 04:53:44;;;;;;;78.30;45.23;;;;;;;5.21;78.22;102331.63;1758151;80;21274;-73
2021/01/02 04:56:16;;;;;;;69.67;36.73;;;;;;;5.25;78.13;102334.36;1766747;80;21301;-72
2021/01/02 04:58:49;;;;;;;66.83;34.40;;;;;;;5.24;78.00;102332.11;1783020;80;21258;-72
2021/01/02 05:01:21;;;;;;;68.63;36.00;;;;;;;5.25;77.96;102341.25;1759573;80;21706;-72
2021/01/02 05:03:54;;;;;;;72.33;39.80;;;;;;;5.26;78.03;102341.03;1762204;80;21388;-72
2021/01/02 05:06:27;;;;;;;75.72;39.88;;;;;;;5.31;78.08;102340.50;1774130;80;21849;-72
2021/01/02 05:09:04;;;;;;;71.83;42.03;;;;;;;5.33;78.01;102338.41;1759961;80;21757;-72
2021/01/02 05:11:39;;;;;;;65.47;34.40;;;;;;;5.32;77.84;102341.67;1768494;80;21368;-72
2021/01/02 05:14:12;;;;;;;62.30;33.23;;;;;;;5.30;77.70;102345.64;1762740;80;21365;-73
2021/01/02 05:16:45;;;;;;;56.10;32.67;;;;;;;5.25;77.66;102352.25;1774450;80;21353;-72
2021/01/02 05:19:20;;;;;;;56.88;32.73;;;;;;;5.21;77.77;102355.03;1778760;80;21342;-71
2021/01/02 05:21:52;;;;;;;63.87;37.47;;;;;;;5.21;77.90;102364.16;1786104;80;21195;-73
2021/01/02 05:24:25;;;;;;;70.53;40.67;;;;;;;5.22;77.96;102358.12;1772437;80;21365;-73
2021/01/02 05:26:58;;;;;;;57.00;29.30;;;;;;;5.23;77.90;102363.95;1771896;80;21365;-74
2021/01/02 05:29:31;;;;;;;60.33;29.67;;;;;;;5.18;77.71;102370.53;1778203;80;21905;-75
2021/01/02 05:32:04;;;;;;;58.47;26.73;;;;;;;5.14;77.81;102363.16;1780028;80;21349;-72
2021/01/02 05:34:37;;;;;;;59.07;30.57;;;;;;;5.05;77.61;102375.79;1776169;80;21837;-74
2021/01/02 05:37:11;;;;;;;63.80;31.53;;;;;;;4.87;77.72;102366.97;1781317;80;21211;-72
2021/01/02 05:39:52;;;;;;;55.13;29.67;;;;;;;4.78;78.17;102376.34;1757940;80;21210;-73
2021/01/02 05:42:25;;;;;;;52.17;28.47;;;;;;;4.74;78.29;102376.34;1767574;80;21206;-73
2021/01/02 05:44:59;;;;;;;50.33;26.15;;;;;;;4.61;78.36;102381.59;1772828;80;21340;-75
2021/01/02 05:47:32;;;;;;;58.93;27.03;;;;;;;4.55;78.72;102396.05;1783670;79;21416;-76
2021/01/02 05:50:07;;;;;;;48.27;26.23;;;;;;;4.61;79.12;102392.08;1784389;80;21845;-74
2021/01/02 05:52:39;;;;;;;54.23;28.32;;;;;;;4.64;79.15;102394.99;1745532;80;21353;-74
2021/01/02 05:55:12;;;;;;;60.95;30.82;;;;;;;4.68;79.25;102399.95;1754592;80;21422;-72
2021/01/02 05:57:45;;;;;;;49.93;25.40;;;;;;;4.70;79.21;102398.40;1752722;80;21174;-73
2021/01/02 06:00:19;;;;;;;48.00;25.77;;;;;;;4.68;79.19;102401.32;1790867;80;21337;-74
2021/01/02 06:02:52;;;;;;;50.33;26.27;;;;;;;4.68;79.19;102403.20;1776014;80;21915;-73
2021/01/02 06:05:27;;;;;;;52.77;25.67;;;;;;;4.72;79.36;102397.69;1776733;80;21373;-72
2021/01/02 06:08:04;;;;;;;52.30;27.37;;;;;;;4.76;79.29;102402.64;1787276;80;21241;-73
2021/01/02 06:10:37;;;;;;;53.47;28.80;;;;;;;4.78;79.29;102415.72;1809481;78;21343;-73
2021/01/02 06:13:09;;;;;;;49.90;24.87;;;;;;;4.77;79.22;102413.98;1775214;78;21315;-71
2021/01/02 06:15:42;;;;;;;55.23;26.77;;;;;;;4.77;79.19;102413.98;1777543;80;21197;-73
2021/01/02 06:18:15;;;;;;;51.30;26.23;;;;;;;4.80;79.23;102423.77;1787847;80;21363;-72
2021/01/02 06:20:47;;;;;;;63.63;29.43;;;;;;;4.83;79.24;102426.17;1777887;80;21229;-73
2021/01/02 06:23:20;;;;;;;58.30;29.10;;;;;;;4.83;79.26;102434.42;1767424;80;21332;-73
2021/01/02 06:25:54;;;;;;;70.57;31.57;;;;;;;4.80;79.23;102435.64;1783101;80;21796;-73
2021/01/02 06:28:27;;;;;;;63.20;29.37;;;;;;;4.78;79.32;102429.98;1788375;79;22113;-74
2021/01/02 06:31:03;;;;;;;56.97;29.07;;;;;;;4.81;79.44;102436.48;1790730;79;21367;-73
2021/01/02 06:33:36;;;;;;;54.00;28.73;;;;;;;4.87;79.47;102440.76;1779488;79;21660;-72
2021/01/02 06:36:08;;;;;;;56.37;28.55;;;;;;;4.89;79.48;102440.05;1775128;80;21399;-72
2021/01/02 06:38:41;;;;;;;65.30;31.53;;;;;;;4.95;79.50;102446.20;1707505;80;21359;-72
2021/01/02 06:41:13;;;;;;;67.62;34.45;;;;;;;5.00;79.50;102438.27;1775402;80;21815;-72
2021/01/02 06:43:46;;;;;;;53.27;29.23;;;;;;;5.01;79.35;102446.86;1733280;80;21883;-73
2021/01/02 06:46:19;;;;;;;52.30;28.90;;;;;;;5.04;79.44;102447.02;1780832;80;21405;-73
2021/01/02 06:48:53;;;;;;;60.83;32.10;;;;;;;5.10;79.49;102450.42;1760380;79;21329;-74
2021/01/02 06:51:30;;;;;;;60.95;30.75;;;;;;;5.16;79.49;102452.45;1783014;80;21344;-73
2021/01/02 06:54:04;;;;;;;68.13;34.13;;;;;;;5.25;79.54;102462.38;1765621;80;21327;-76
2021/01/02 06:56:37;;;;;;;93.72;40.12;;;;;;;5.35;79.53;102470.73;1782168;79;21362;-72
2021/01/02 06:59:12;;;;;;;96.55;43.08;;;;;;;5.44;79.38;102470.16;1777678;80;21336;-74
2021/01/02 07:01:45;;;;;;;104.70;42.10;;;;;;;5.45;79.20;102474.63;1775234;79;21325;-75
2021/01/02 07:04:17;;;;;;;129.27;49.67;;;;;;;5.50;79.34;102479.06;1745530;81;21360;-75
2021/01/02 07:06:50;;;;;;;134.40;49.87;;;;;;;5.55;79.36;102482.97;1728021;80;21415;-72
2021/01/02 07:09:23;;;;;;;117.93;49.70;;;;;;;5.64;79.31;102489.28;1759969;81;21378;-74
2021/01/02 07:12:13;;;;;;;130.50;52.70;;;;;;;5.73;79.25;102482.14;1781999;80;21800;-75
2021/01/02 07:14:45;;;;;;;133.10;54.75;;;;;;;5.84;79.20;102479.48;1769713;80;21205;-73
2021/01/02 07:17:25;;;;;;;117.65;48.20;;;;;;;5.93;79.21;102493.55;1742844;80;21267;-74
2021/01/02 07:19:57;;;;;;;116.65;51.02;;;;;;;6.03;79.21;102496.88;1786774;79;21169;-73
2021/01/02 07:22:30;;;;;;;131.78;56.05;;;;;;;6.17;79.22;102493.32;1789356;79;21399;-73
2021/01/02 07:25:08;;;;;;;126.27;53.08;;;;;;;6.28;79.18;102497.84;1812918;78;21199;-74
2021/01/02 07:27:43;;;;;;;132.10;53.30;;;;;;;6.37;78.99;102498.62;1778680;79;21351;-73
2021/01/02 07:30:17;;;;;;;152.17;60.47;;;;;;;6.45;78.83;102510.94;1791218;79;21370;-74
2021/01/02 07:32:50;;;;;;;154.53;57.15;;;;;;;6.48;78.84;102516.93;1789002;78;21383;-73
2021/01/02 07:35:23;;;;;;;84.45;38.08;;;;;;;6.61;79.03;102517.16;1781218;80;21213;-74
2021/01/02 07:37:58;;;;;;;153.55;57.95;;;;;;;6.69;78.83;102506.52;1766724;80;21831;-74
2021/01/02 07:40:33;;;;;;;80.38;36.63;;;;;;;6.80;78.96;102518.47;1762322;80;21351;-73
2021/01/02 07:43:07;;;;;;;82.27;37.73;;;;;;;6.92;78.84;102516.94;1771910;80;21249;-73
2021/01/02 07:45:40;;;;;;;88.65;37.63;;;;;;;7.03;78.53;102517.30;1768628;80;21349;-73
2021/01/02 07:48:12;;;;;;;75.28;35.38;;;;;;;7.17;78.30;102515.56;1786101;80;21185;-73
2021/01/02 07:50:45;;;;;;;73.85;34.10;;;;;;;7.28;78.12;102520.59;1736929;80;21709;-74
2021/01/02 07:53:18;;;;;;;48.40;25.85;;;;;;;7.40;77.88;102524.89;1781014;80;21863;-74
2021/01/02 07:55:50;;;;;;;60.03;28.65;;;;;;;7.48;77.41;102526.15;1780059;80;21663;-73
2021/01/02 07:58:26;;;;;;;61.63;29.85;;;;;;;7.62;76.98;102528.03;1762421;80;21316;-73
2021/01/02 08:01:09;;;;;;;37.83;21.75;;;;;;;7.69;76.69;102526.19;1771879;80;21205;-72
2021/01/02 08:03:42;;;;;;;37.25;20.08;;;;;;;7.79;76.34;102529.46;1785807;80;21832;-73
2021/01/02 08:06:19;;;;;;;33.15;18.23;;;;;;;7.85;75.76;102527.84;1787166;80;21345;-75
2021/01/02 08:09:00;;;;;;;29.30;16.60;;;;;;;7.90;75.15;102534.47;1776502;78;21446;-74
2021/01/02 08:11:33;;;;;;;35.83;18.92;;;;;;;7.94;74.76;102540.46;1817350;78;21312;-74
2021/01/02 08:14:05;;;;;;;38.10;18.37;;;;;;;8.06;74.42;102543.89;1790802;78;21177;-73
2021/01/02 08:16:38;;;;;;;33.28;17.32;;;;;;;8.12;74.02;102543.10;1767863;80;21210;-74
2021/01/02 08:19:10;;;;;;;33.10;17.23;;;;;;;8.19;73.49;102539.89;1739937;81;21843;-74
2021/01/02 08:21:43;;;;;;;29.60;15.20;;;;;;;8.23;72.97;102548.65;1760862;80;21695;-73
2021/01/02 08:24:15;;;;;;;30.60;16.15;;;;;;;8.24;72.49;102538.77;1784718;80;21398;-73
2021/01/02 08:26:49;;;;;;;32.53;15.83;;;;;;;8.28;72.14;102542.86;1765274;80;21311;-72
2021/01/02 08:29:21;;;;;;;29.10;16.27;;;;;;;8.33;72.05;102543.09;1792089;80;21216;-75
2021/01/02 08:32:07;;;;;;;36.53;17.17;;;;;;;8.38;71.72;102555.80;1785700;80;21241;-76
2021/01/02 08:34:40;;;;;;;34.73;17.48;;;;;;;8.44;71.50;102546.70;1790939;80;21760;-76
2021/01/02 08:37:14;;;;;;;34.00;17.07;;;;;;;8.51;71.22;102544.00;1786329;80;21303;-75
2021/01/02 08:39:47;;;;;;;32.80;16.30;;;;;;;8.56;71.10;102548.41;1783188;80;21730;-73
2021/01/02 08:42:19;;;;;;;27.52;13.35;;;;;;;8.59;70.64;102550.23;1766907;80;21214;-73
2021/01/02 08:44:54;;;;;;;22.70;13.38;;;;;;;8.60;70.28;102556.09;1784868;80;21262;-73
2021/01/02 08:47:27;;;;;;;18.15;10.60;;;;;;;8.59;69.78;102562.70;1767057;80;21215;-73
2021/01/02 08:50:09;;;;;;;16.90;10.72;;;;;;;8.59;69.37;102558.55;1776823;80;21219;-73
2021/01/02 08:52:43;;;;;;;20.17;11.05;;;;;;;8.56;69.17;102563.08;1782184;80;21223;-75
2021/01/02 08:55:17;;;;;;;22.58;11.70;;;;;;;8.57;69.20;102567.56;1771439;80;21365;-73
2021/01/02 08:57:55;;;;;;;20.10;10.65;;;;;;;8.59;69.05;102565.47;1757957;80;21270;-75
2021/01/02 09:00:30;;;;;;;20.92;11.38;;;;;;;8.64;68.81;102561.53;1767177;80;21199;-74
2021/01/02 09:03:06;;;;;;;19.67;11.90;;;;;;;8.70;68.61;102569.03;1780892;80;21384;-74
2021/01/02 09:05:44;;;;;;;21.97;12.10;;;;;;;8.74;68.47;102569.48;1758109;80;21338;-75
2021/01/02 09:08:20;;;;;;;15.03;9.40;;;;;;;8.73;68.45;102571.42;1776860;80;21341;-75
2021/01/02 09:10:59;;;;;;;16.42;10.35;;;;;;;8.76;68.19;102579.86;1786699;79;21392;-75
2021/01/02 09:13:31;;;;;;;18.45;9.23;;;;;;;8.76;67.79;102566.84;1784453;80;21915;-75
2021/01/02 09:16:06;;;;;;;18.87;10.68;;;;;;;8.74;67.75;102564.81;1788864;79;21203;-75
2021/01/02 09:18:39;;;;;;;14.68;9.88;;;;;;;8.77;67.74;102568.58;1787662;79;21314;-76
2021/01/02 09:21:18;;;;;;;16.80;9.60;;;;;;;8.82;67.67;102573.50;1784706;80;21710;-75
2021/01/02 09:23:53;;;;;;;20.55;11.08;;;;;;;8.80;67.26;102565.39;1781579;79;21257;-75
2021/01/02 09:26:32;;;;;;;18.17;11.35;;;;;;;8.74;67.33;102559.28;1794446;79;21353;-75
2021/01/02 09:29:16;;;;;;;23.38;8.80;;;;;;;8.74;67.32;102564.81;1784986;79;21408;-74
2021/01/02 09:31:48;;;;;;;13.85;8.95;;;;;;;8.75;67.24;102569.30;1792080;79;21326;-76
2021/01/02 09:34:21;;;;;;;17.52;9.30;;;;;;;8.70;67.10;102562.11;1787534;79;21236;-75
2021/01/02 09:36:54;;;;;;;16.97;10.65;;;;;;;8.66;67.31;102566.37;1771352;80;21201;-76
2021/01/02 09:39:28;;;;;;;20.57;12.78;;;;;;;8.70;67.45;102570.42;1780905;80;21820;-76
2021/01/02 09:41:59;;;;;;;32.53;15.13;;;;;;;8.72;67.29;102560.53;1781017;80;21327;-75
2021/01/02 09:44:35;;;;;;;29.32;13.93;;;;;;;8.75;67.28;102556.83;1787977;80;21179;-75
2021/01/02 09:47:28;;;;;;;27.47;14.20;;;;;;;8.77;67.35;102551.97;1733518;81;21257;-76
2021/01/02 09:50:01;;;;;;;21.50;13.32;;;;;;;8.77;67.35;102551.97;1735870;81;22169;-77
2021/01/02 09:52:34;;;;;;;21.43;13.03;;;;;;;8.82;67.23;102552.19;1743621;82;21198;-76
2021/01/02 09:55:08;;;;;;;23.62;14.18;;;;;;;8.85;67.29;102543.48;1733975;81;21367;-77
2021/01/02 09:57:41;;;;;;;24.65;14.23;;;;;;;8.91;67.43;102545.95;1728294;81;21244;-78
2021/01/02 10:00:15;;;;;;;21.10;11.73;;;;;;;8.95;67.40;102545.37;1727156;81;21849;-77
2021/01/02 10:02:47;;;;;;;23.85;12.65;;;;;;;9.01;67.23;102545.06;1731556;81;21417;-75
2021/01/02 10:05:23;;;;;;;19.45;11.75;;;;;;;8.94;67.21;102544.18;1741605;81;21225;-77
2021/01/02 10:07:55;;;;;;;;;;;;;;;8.89;67.52;102551.72;1749433;80;21847;-78
2021/01/02 10:10:32;;;;;;;23.42;12.98;;;;;;;8.86;67.53;102546.58;1746364;81;20242;-75
2021/01/02 10:13:05;;;;;;;19.25;12.20;;;;;;;8.88;67.67;102556.08;1743105;81;21220;-76
2021/01/02 10:15:49;;;;;;;24.70;13.32;;;;;;;8.93;67.64;102550.78;1745966;81;21253;-77
2021/01/02 10:18:22;;;;;;;22.52;12.50;;;;;;;8.95;67.72;102555.06;1749246;80;21229;-75
2021/01/02 10:20:57;;;;;;;;;;;;;;;8.94;67.76;102545.02;1738029;81;21911;-76
2021/01/02 10:23:31;;;;;;;21.90;13.72;;;;;;;8.93;67.93;102551.62;1734401;81;20356;-75
2021/01/02 10:26:06;;;;;;;25.32;14.33;;;;;;;8.92;68.00;102548.53;1771922;79;21249;-75
2021/01/02 10:28:38;;;;;;;24.02;12.98;;;;;;;8.97;68.16;102557.61;1781201;80;21304;-77
2021/01/02 10:31:12;;;;;;;22.67;13.75;;;;;;;9.01;68.15;102555.59;1784813;80;21422;-76
2021/01/02 10:33:47;;;;;;;26.52;15.15;;;;;;;9.07;68.20;102543.70;1770878;80;21288;-74
2021/01/02 10:36:19;;;;;;;24.92;14.43;;;;;;;9.17;68.17;102545.57;1765005;80;21397;-74
2021/01/02 10:38:52;;;;;;;;;;;;;;;9.26;68.04;102542.97;1776321;80;21340;-74
2021/01/02 10:41:25;;;;;;;24.85;14.58;;;;;;;9.30;67.78;102538.70;1766896;80;20192;-75
2021/01/02 10:43:57;;;;;;;25.17;15.20;;;;;;;9.29;67.73;102549.47;1779798;80;21413;-74
2021/01/02 10:46:30;;;;;;;24.00;15.50;;;;;;;9.27;67.76;102544.67;1761907;80;21345;-78
2021/01/02 10:49:02;;;;;;;22.48;13.95;;;;;;;9.27;67.70;102544.67;1762408;80;21349;-75
2021/01/02 10:51:35;;;;;;;24.25;15.48;;;;;;;9.29;67.70;102550.85;1772510;80;21223;-75
2021/01/02 10:54:09;;;;;;;21.23;12.60;;;;;;;9.32;67.46;102544.91;1767469;80;21207;-74
2021/01/02 10:56:55;;;;;;;28.80;12.68;;;;;;;9.36;67.42;102544.80;1785769;79;21875;-75
2021/01/02 10:59:31;;;;;;;29.42;14.60;;;;;;;9.38;67.17;102534.38;1783152;79;21398;-73
2021/01/02 11:02:03;;;;;;;26.55;12.25;;;;;;;9.36;67.03;102541.20;1788318;78;21186;-74
2021/01/02 11:04:38;;;;;;;21.20;11.15;;;;;;;9.40;67.09;102532.25;1786562;79;21516;-77
2021/01/02 11:07:10;;;;;;;23.47;13.53;;;;;;;9.42;67.24;102535.66;1785418;79;21380;-77
2021/01/02 11:09:45;;;;;;;25.00;13.08;;;;;;;9.43;67.42;102526.27;1783126;79;21450;-77
2021/01/02 11:12:18;;;;;;;22.30;11.88;;;;;;;9.37;67.60;102531.27;1776324;80;22387;-77
2021/01/02 11:14:57;;;;;;;20.50;12.28;;;;;;;9.28;68.03;102538.06;1783162;80;21356;-78
2021/01/02 11:17:29;;;;;;;47.75;31.20;;;;;;;9.22;68.43;102532.48;1779272;80;21887;-76
2021/01/02 11:20:01;;;;;;;25.30;15.10;;;;;;;9.21;68.90;102537.19;1778970;79;21465;-78
2021/01/02 11:22:34;;;;;;;29.12;14.70;;;;;;;9.19;69.28;102536.52;1794569;79;21233;-78
2021/01/02 11:25:09;;;;;;;22.35;13.08;;;;;;;9.21;69.54;102538.57;1742781;81;21268;-80
2021/01/02 11:27:41;;;;;;;35.78;20.85;;;;;;;9.25;69.63;102541.78;1752488;80;21401;-78
2021/01/02 11:30:16;;;;;;;25.85;13.80;;;;;;;9.17;69.61;102540.03;1744729;80;21268;-78
2021/01/02 11:32:48;;;;;;;24.00;13.43;;;;;;;9.07;69.76;102537.32;1753636;80;21355;-76
2021/01/02 11:35:22;;;;;;;19.98;11.40;;;;;;;9.07;69.91;102549.23;1749172;81;21306;-76
2021/01/02 11:37:55;;;;;;;22.93;10.68;;;;;;;9.10;69.92;102546.08;1763262;80;21256;-76
2021/01/02 11:40:27;;;;;;;26.70;12.75;;;;;;;9.27;71.68;102550.22;1749449;80;21342;-80
2021/01/02 11:43:00;;;;;;;21.00;11.08;;;;;;;9.46;71.55;102549.44;1776965;80;21335;-77
2021/01/02 11:45:33;;;;;;;20.73;11.90;;;;;;;9.68;71.12;102559.30;1794726;79;21791;-76
2021/01/02 11:48:06;;;;;;;19.35;11.10;;;;;;;9.72;69.67;102550.91;1752167;81;22115;-78
2021/01/02 11:50:39;;;;;;;16.37;10.48;;;;;;;9.60;69.50;102553.13;1742143;81;21192;-77
2021/01/02 11:53:12;;;;;;;24.55;11.75;;;;;;;9.50;69.52;102553.52;1777481;80;21250;-76
2021/01/02 11:55:45;;;;;;;20.92;12.30;;;;;;;9.45;69.61;102557.95;1772829;80;21345;-78
2021/01/02 11:58:19;;;;;;;16.12;10.35;;;;;;;9.39;70.49;102555.49;1784107;80;21346;-77
2021/01/02 12:00:53;;;;;;;24.07;11.38;;;;;;;9.39;71.35;102562.42;1765728;80;21337;-77